Webcam Flughafen St.Gallen-Altenrhein

Live-Bilder und Zeitraffer LSZR / ACH.

 

Live aus Altenrhein
LIVE
LSZR 210650Z VRB02KT CAVOK 09/08 Q1012 NOSIG RMK C
Zeitraffer heute
2020-10-21 00:14:58
LSZR 202150Z AUTO VRB04KT CAVOK 09/07 Q1014